createdAt,value
2022-09-22T00:03:34.926Z,8.30
2022-09-22T00:08:39.830Z,8.30
2022-09-22T00:13:42.804Z,8.20
2022-09-22T00:18:44.616Z,8.00
2022-09-22T00:23:47.297Z,8.00
2022-09-22T00:28:51.294Z,8.00
2022-09-22T00:33:54.442Z,7.90
2022-09-22T00:38:58.199Z,7.80
2022-09-22T00:44:21.443Z,7.80
2022-09-22T00:49:46.057Z,7.70
2022-09-22T00:54:49.248Z,7.60
2022-09-22T00:59:52.310Z,7.60
2022-09-22T01:04:54.288Z,7.50
2022-09-22T01:09:56.315Z,7.50
2022-09-22T01:15:14.749Z,7.50
2022-09-22T01:20:44.157Z,7.50
2022-09-22T01:26:20.124Z,7.50
2022-09-22T01:31:27.970Z,7.60
2022-09-22T01:36:48.668Z,7.60
2022-09-22T01:42:19.986Z,7.80
2022-09-22T01:47:28.879Z,7.90
2022-09-22T01:52:34.014Z,7.90
2022-09-22T01:57:44.711Z,7.80
2022-09-22T02:03:04.232Z,7.80
2022-09-22T02:08:13.200Z,7.80
2022-09-22T02:13:15.345Z,7.70
2022-09-22T02:18:25.807Z,7.80
2022-09-22T02:23:28.347Z,7.90
2022-09-22T02:28:33.308Z,8.00
2022-09-22T02:33:39.757Z,8.10
2022-09-22T02:39:13.623Z,8.20
2022-09-22T02:44:23.940Z,8.20
2022-09-22T02:49:27.930Z,8.10
2022-09-22T02:54:29.718Z,8.30
2022-09-22T02:59:31.639Z,8.20
2022-09-22T03:04:33.489Z,8.10
2022-09-22T03:09:35.337Z,7.90
2022-09-22T03:14:37.163Z,8.00
2022-09-22T03:19:38.976Z,7.90
2022-09-22T03:24:40.814Z,7.90
2022-09-22T03:29:42.598Z,7.90
2022-09-22T03:34:44.592Z,8.00
2022-09-22T03:39:46.613Z,7.90
2022-09-22T03:44:48.386Z,8.00
2022-09-22T03:49:50.196Z,7.90
2022-09-22T03:54:52.259Z,8.00
2022-09-22T03:59:54.044Z,8.00
2022-09-22T04:04:56.465Z,8.00
2022-09-22T04:09:58.674Z,8.00
2022-09-22T04:15:00.535Z,8.00
2022-09-22T04:20:04.030Z,8.00
2022-09-22T04:25:06.450Z,8.00
2022-09-22T04:30:08.943Z,7.90
2022-09-22T04:35:10.831Z,7.80
2022-09-22T04:40:12.869Z,7.90
2022-09-22T04:45:16.593Z,7.80
2022-09-22T04:50:19.662Z,7.90
2022-09-22T04:55:23.357Z,7.90
2022-09-22T05:00:26.461Z,7.80
2022-09-22T05:05:28.267Z,7.70
2022-09-22T05:10:33.199Z,7.80
2022-09-22T05:15:35.120Z,7.90
2022-09-22T05:20:37.958Z,8.00
2022-09-22T05:25:39.723Z,8.10
2022-09-22T05:30:41.543Z,8.00
2022-09-22T05:35:43.355Z,8.00
2022-09-22T05:40:47.335Z,8.10
2022-09-22T05:45:49.958Z,8.10
2022-09-22T05:50:51.867Z,8.00
2022-09-22T05:55:54.182Z,8.10
2022-09-22T06:00:58.079Z,8.00
2022-09-22T06:06:00.031Z,8.10
2022-09-22T06:11:01.948Z,8.20
2022-09-22T06:16:04.271Z,8.50
2022-09-22T06:21:07.110Z,8.50
2022-09-22T06:26:10.216Z,8.80
2022-09-22T06:31:12.098Z,9.00
2022-09-22T06:36:18.464Z,9.10
2022-09-22T06:41:20.407Z,9.00
2022-09-22T06:46:27.356Z,9.00
2022-09-22T06:51:32.936Z,9.20
2022-09-22T06:56:39.891Z,9.40
2022-09-22T07:01:43.557Z,9.70
2022-09-22T07:06:45.794Z,9.10
2022-09-22T07:11:49.120Z,9.20
2022-09-22T07:16:52.551Z,9.30
2022-09-22T07:21:54.377Z,9.30
2022-09-22T07:26:56.338Z,9.60
2022-09-22T07:31:59.654Z,9.80
2022-09-22T07:37:02.972Z,9.70
2022-09-22T07:42:04.943Z,9.80
2022-09-22T07:47:06.761Z,10.20
2022-09-22T07:52:09.959Z,10.30
2022-09-22T07:57:12.730Z,10.40
2022-09-22T08:02:16.044Z,10.20
2022-09-22T08:07:17.880Z,10.20
2022-09-22T08:12:20.742Z,10.20
2022-09-22T08:17:22.575Z,10.60
2022-09-22T08:22:24.388Z,10.00
2022-09-22T08:27:26.299Z,10.30
2022-09-22T08:32:30.471Z,10.20
2022-09-22T08:37:32.295Z,10.60
2022-09-22T08:42:35.034Z,11.10
2022-09-22T08:48:02.456Z,11.00
2022-09-22T08:53:10.017Z,11.00
2022-09-22T08:58:30.142Z,11.60
2022-09-22T09:03:58.757Z,11.30
2022-09-22T09:09:49.629Z,11.60
2022-09-22T09:15:05.740Z,12.10
2022-09-22T09:20:51.601Z,13.30
2022-09-22T09:25:56.824Z,13.60
2022-09-22T09:31:41.992Z,13.30
2022-09-22T09:36:58.043Z,12.40
2022-09-22T09:42:05.423Z,12.00
2022-09-22T09:47:45.008Z,11.40
2022-09-22T09:52:49.551Z,11.70
2022-09-22T09:58:08.640Z,11.70
2022-09-22T10:03:45.522Z,12.10
2022-09-22T10:08:52.309Z,14.10
2022-09-22T10:13:59.814Z,17.30
2022-09-22T10:19:20.820Z,17.50
2022-09-22T10:24:32.470Z,13.90
2022-09-22T10:29:35.538Z,12.00
2022-09-22T10:39:54.433Z,11.00
2022-09-22T10:45:02.624Z,11.00
2022-09-22T10:50:23.068Z,11.00
2022-09-22T10:55:35.694Z,11.40
2022-09-22T11:00:42.489Z,11.80
2022-09-22T11:06:37.279Z,11.90
2022-09-22T11:12:17.878Z,12.30
2022-09-22T11:17:52.181Z,12.10
2022-09-22T11:23:30.956Z,11.90
2022-09-22T11:29:09.127Z,11.70
2022-09-22T11:34:55.443Z,11.30
2022-09-22T11:40:06.604Z,11.00
2022-09-22T11:45:17.780Z,11.10
2022-09-22T11:50:31.690Z,11.20
2022-09-22T11:55:41.575Z,11.20
2022-09-22T12:01:15.008Z,10.90
2022-09-22T12:06:29.308Z,11.00
2022-09-22T12:11:35.832Z,11.10
2022-09-22T12:16:50.425Z,10.90
2022-09-22T12:22:11.770Z,11.00
2022-09-22T12:27:26.102Z,11.30
2022-09-22T12:32:39.510Z,11.40
2022-09-22T12:37:41.357Z,11.40
2022-09-22T12:42:49.205Z,11.50
2022-09-22T12:47:53.408Z,11.60
2022-09-22T12:53:09.259Z,12.10
2022-09-22T12:58:20.460Z,12.20
2022-09-22T13:03:25.434Z,12.50
2022-09-22T13:08:30.274Z,12.70
2022-09-22T13:13:32.068Z,12.40
2022-09-22T13:18:39.352Z,11.90
2022-09-22T13:24:00.558Z,11.70
2022-09-22T13:29:10.333Z,11.40
2022-09-22T13:34:30.150Z,11.20
2022-09-22T13:39:35.690Z,11.00
2022-09-22T13:44:40.087Z,10.90
2022-09-22T13:49:47.602Z,11.00
2022-09-22T13:54:54.680Z,11.20
2022-09-22T14:00:01.171Z,11.20
2022-09-22T14:05:08.020Z,11.00
2022-09-22T14:10:15.495Z,10.90
2022-09-22T14:15:39.533Z,11.00
2022-09-22T14:20:43.432Z,11.10
2022-09-22T14:25:45.507Z,11.30
2022-09-22T14:30:47.618Z,11.40
2022-09-22T14:35:52.172Z,11.50
2022-09-22T14:40:56.340Z,11.90
2022-09-22T14:46:00.744Z,12.10
2022-09-22T14:51:12.027Z,12.00
2022-09-22T14:56:22.949Z,11.70
2022-09-22T15:01:53.299Z,11.70
2022-09-22T15:06:57.795Z,11.70
2022-09-22T15:12:02.382Z,11.70
2022-09-22T15:17:24.156Z,11.60
2022-09-22T15:22:27.611Z,11.40
2022-09-22T15:27:31.519Z,11.00
2022-09-22T15:32:33.308Z,10.90
2022-09-22T15:37:39.017Z,10.90
2022-09-22T15:42:56.929Z,10.90
2022-09-22T15:48:04.490Z,10.80
2022-09-22T15:53:07.848Z,10.70
2022-09-22T15:58:15.793Z,10.70
2022-09-22T16:03:23.863Z,10.60
2022-09-22T16:08:42.228Z,10.40
2022-09-22T16:13:44.554Z,10.30
2022-09-22T16:18:46.390Z,10.20
2022-09-22T16:23:48.718Z,10.20
2022-09-22T16:28:51.448Z,10.10
2022-09-22T16:33:54.871Z,10.10
2022-09-22T16:38:56.858Z,10.00
2022-09-22T16:43:59.226Z,10.00
2022-09-22T16:49:07.243Z,9.90
2022-09-22T16:54:14.574Z,9.80
2022-09-22T16:59:18.782Z,9.80
2022-09-22T17:04:20.581Z,9.50
2022-09-22T17:09:22.395Z,9.50
2022-09-22T17:14:25.572Z,9.40
2022-09-22T17:19:27.831Z,9.50
2022-09-22T17:24:30.467Z,9.40
2022-09-22T17:29:32.850Z,9.50
2022-09-22T17:34:35.192Z,9.70
2022-09-22T17:39:36.994Z,9.70
2022-09-22T17:44:38.818Z,9.60
2022-09-22T17:49:59.212Z,9.50
2022-09-22T17:55:09.638Z,9.50
2022-09-22T18:00:19.371Z,9.30
2022-09-22T18:05:26.712Z,9.10
2022-09-22T18:10:34.185Z,9.20
2022-09-22T18:15:36.678Z,9.10
2022-09-22T18:20:38.498Z,9.00
2022-09-22T18:25:41.345Z,8.90
2022-09-22T18:30:43.315Z,8.90
2022-09-22T18:35:47.088Z,9.00
2022-09-22T18:40:51.259Z,9.20
2022-09-22T18:45:53.144Z,9.30
2022-09-22T18:50:54.962Z,9.30
2022-09-22T18:56:07.335Z,9.30
2022-09-22T19:01:13.758Z,9.30
2022-09-22T19:06:15.864Z,9.20
2022-09-22T19:11:19.052Z,9.20
2022-09-22T19:16:22.434Z,9.00
2022-09-22T19:21:25.188Z,9.00
2022-09-22T19:26:28.267Z,8.90
2022-09-22T19:31:30.179Z,9.20
2022-09-22T19:36:32.970Z,9.20
2022-09-22T19:41:39.940Z,9.20
2022-09-22T19:46:42.773Z,9.20
2022-09-22T19:51:45.080Z,9.40
2022-09-22T19:56:47.898Z,9.40
2022-09-22T20:01:49.873Z,9.40
2022-09-22T20:06:52.045Z,9.50
2022-09-22T20:11:53.947Z,9.30
2022-09-22T20:17:05.478Z,9.40
2022-09-22T20:22:18.554Z,9.50
2022-09-22T20:27:24.079Z,9.30
2022-09-22T20:32:27.811Z,9.20
2022-09-22T20:37:31.944Z,9.30
2022-09-22T20:42:33.781Z,9.20
2022-09-22T20:47:36.066Z,9.10
2022-09-22T20:52:40.213Z,9.10
2022-09-22T20:57:42.071Z,9.00
2022-09-22T21:02:44.117Z,9.00
2022-09-22T21:07:46.041Z,8.90
2022-09-22T21:12:48.187Z,8.70
2022-09-22T21:17:50.468Z,8.70
2022-09-22T21:22:52.357Z,8.60
2022-09-22T21:27:54.207Z,8.50
2022-09-22T21:32:56.039Z,8.30
2022-09-22T21:37:57.869Z,8.10
2022-09-22T21:42:59.712Z,8.10
2022-09-22T21:48:01.706Z,8.30
2022-09-22T21:53:03.597Z,8.40
2022-09-22T21:58:05.434Z,8.40
2022-09-22T22:03:25.825Z,8.50
2022-09-22T22:08:27.905Z,8.60
2022-09-22T22:13:30.388Z,8.60
2022-09-22T22:18:32.258Z,8.60
2022-09-22T22:23:40.142Z,8.60
2022-09-22T22:28:43.627Z,8.50
2022-09-22T22:33:45.855Z,8.40
2022-09-22T22:38:52.194Z,8.40
2022-09-22T22:43:54.606Z,8.50
2022-09-22T22:48:57.458Z,8.30
2022-09-22T22:53:59.313Z,8.40
2022-09-22T22:59:01.308Z,8.50
2022-09-22T23:04:05.603Z,8.40
2022-09-22T23:09:11.002Z,8.30
2022-09-22T23:14:15.699Z,8.30
2022-09-22T23:19:18.786Z,8.30
2022-09-22T23:24:20.712Z,8.40
2022-09-22T23:29:22.571Z,8.50
2022-09-22T23:34:24.657Z,8.50
2022-09-22T23:39:26.612Z,8.60
2022-09-22T23:44:28.488Z,8.60
2022-09-22T23:49:30.915Z,8.70
2022-09-22T23:54:33.650Z,8.80
2022-09-22T23:59:35.507Z,8.80
